Bei Facebook empfehlenBei Twitter postenGoogle plusPinterest

Das Wetter im Erzgebirge am 28.03.2016

Wetter und Klima am 28.03.2016 Holzhau im Erzgebirge (630m ü.NN)
Letzte gemessene Temperatur und Uhrzeit der Messung23:45:00 Uhr3.90 °C
Temperatur (Maximum / Höchstwert) und Uhrzeit der Messung13:45:00 Uhr12.90 °C
Temperatur (Minimum / Tiefstwert) und Uhrzeit der Messung05:30:00-1.40 °C
Errechneter Absolutwert der Temperaturschwankungen zwischen Tmin und Tmax des Tages14.30 K
Errechnete Tagesmitteltemperatur6.30417 °C
Gesamt - Niederschlag des Tages (in flüssiger Form)1.55 Liter / m²
Luftdruck (Maximum / Höchstwert) und Zeitpunkt der Messung01:15:00 Uhr1009.20 hPa
Luftdruck (Minimum / Tiefstwert) und Zeitpunkt der Messung23:15:00 Uhr999.90 hPa
Errechneter Absolutwert der Luftdruckschwankungen des Tages9.30 hPa
Höchste gemessene Windgeschwindigkeit und Uhrzeit der Messung23:45:00 Uhr0.00 km/h
Errechnete Windhäufigkeit in Relation zu den Messwerten des Tages0.00000 %
Niedrigste Windkühle (Windchill) und Zeitpunkt der Messung05:30:00 Uhr-1.40 °C
Taupunkt (Maximum / Höchstwert) und Uhrzeit der Messung13:45:00 Uhr6.30 °C
Taupunkt (Minimum / Tiefstwert) und Uhrzeit der Messung05:30:00-3.00 °C
Anzahl der automatisch eingelesenen Messwerte 96

Detaillierte Wetter- und Klima- Messwerte für den 28.03.2016 in Holzhau im Erzgebirge (630m ü.NN)
ZeitTemperaturLuftdruckRel. LuftfeuchteWindWindrichtungWindchillTaupunktNiederschlag l/m²
23:45:003.90 °C1000.90 hPa87.00 %1.90 °C1.55
23:30:004.30 °C1000.30 hPa86.00 %2.20 °C1.55
23:15:004.40 °C999.90 hPa86.00 %2.30 °C1.55
23:00:004.40 °C1001.40 hPa86.00 %2.30 °C1.55
22:45:004.40 °C1001.90 hPa85.00 %2.10 °C1.55
22:30:004.40 °C1001.80 hPa84.00 %1.90 °C1.03
22:15:004.70 °C1001.80 hPa83.00 %2.10 °C1.03
22:00:005.20 °C1002.00 hPa81.00 %2.20 °C1.03
21:45:007.30 °C1001.60 hPa78.00 %3.70 °C 
21:30:007.40 °C1000.40 hPa79.00 %4.00 °C 
21:15:007.20 °C1000.10 hPa79.00 %3.80 °C 
21:00:006.60 °C1000.20 hPa79.00 %3.20 °C 
20:45:006.10 °C1000.20 hPa78.00 %2.60 °C 
20:30:006.20 °C1000.10 hPa78.00 %2.70 °C 
20:15:005.80 °C1000.30 hPa77.00 %2.10 °C 
20:00:005.80 °C1000.50 hPa74.00 %1.50 °C 
19:45:006.30 °C1000.40 hPa72.00 %1.60 °C 
19:30:007.20 °C1000.60 hPa69.00 %1.90 °C 
19:15:008.20 °C1000.50 hPa68.00 %2.70 °C 
19:00:009.10 °C1000.70 hPa67.00 %3.30 °C 
18:45:009.50 °C1000.60 hPa66.00 %3.50 °C 
18:30:009.60 °C1000.70 hPa64.00 %3.10 °C 
18:15:009.80 °C1000.70 hPa62.00 %2.90 °C 
18:00:0010.30 °C1000.60 hPa61.00 %3.10 °C 
17:45:0011.00 °C1000.50 hPa63.00 %4.20 °C 
17:30:0011.60 °C1000.60 hPa65.00 %5.30 °C 
17:15:0012.00 °C1000.60 hPa65.00 %5.60 °C 
17:00:0011.80 °C1000.70 hPa67.00 %5.90 °C 
16:45:0011.10 °C1001.00 hPa69.00 %5.60 °C 
16:30:0011.10 °C1001.00 hPa69.00 %5.60 °C 
16:15:0011.30 °C1001.30 hPa68.00 %5.60 °C 
16:00:0011.00 °C1001.40 hPa68.00 %5.30 °C 
15:45:0011.10 °C1001.60 hPa68.00 %5.40 °C 
15:30:0011.20 °C1001.70 hPa67.00 %5.30 °C 
15:15:0011.40 °C1001.90 hPa67.00 %5.50 °C 
15:00:0011.50 °C1002.00 hPa66.00 %5.40 °C 
14:45:0011.80 °C1002.10 hPa65.00 %5.40 °C 
14:30:0012.20 °C1002.30 hPa65.00 %5.80 °C 
14:15:0012.40 °C1002.20 hPa65.00 %6.00 °C 
14:00:0012.80 °C1002.20 hPa64.00 %6.20 °C 
13:45:0012.90 °C1002.40 hPa64.00 %6.30 °C 
13:30:0012.90 °C1002.60 hPa64.00 %6.30 °C 
13:15:0012.50 °C1003.10 hPa65.00 %6.10 °C 
13:00:0012.40 °C1003.30 hPa65.00 %6.00 °C 
12:45:0012.40 °C1003.50 hPa66.00 %6.20 °C 
12:30:0011.90 °C1003.50 hPa67.00 %6.00 °C 
12:15:0011.50 °C1003.70 hPa67.00 %5.60 °C 
12:00:0011.80 °C1003.90 hPa67.00 %5.90 °C 
11:45:0011.40 °C1004.00 hPa66.00 %5.30 °C 
11:30:0011.40 °C1003.90 hPa67.00 %5.50 °C 
11:15:0010.90 °C1004.30 hPa68.00 %5.20 °C 
11:00:0010.80 °C1004.30 hPa68.00 %5.10 °C 
10:45:0010.40 °C1004.50 hPa67.00 %4.50 °C 
10:30:0010.40 °C1004.70 hPa69.00 %5.00 °C 
10:15:009.80 °C1004.70 hPa73.00 %5.20 °C 
10:00:009.40 °C1005.10 hPa75.00 %5.20 °C 
09:45:009.10 °C1005.10 hPa79.00 %5.70 °C 
09:30:008.70 °C1005.40 hPa82.00 %5.80 °C 
09:15:008.30 °C1005.50 hPa85.00 %5.90 °C 
09:00:007.90 °C1005.30 hPa88.00 %6.00 °C 
08:45:007.20 °C1005.70 hPa90.00 %5.70 °C 
08:30:006.30 °C1005.70 hPa92.00 %5.10 °C 
08:15:004.70 °C1005.80 hPa93.00 %3.70 °C 
08:00:002.90 °C1006.10 hPa93.00 %1.90 °C 
07:45:001.80 °C1006.30 hPa93.00 %0.80 °C 
07:30:000.40 °C1006.30 hPa92.00 %-0.70 °C 
07:15:00-0.40 °C1006.60 hPa92.00 %-1.70 °C 
07:00:00-0.80 °C1006.80 hPa92.00 %-2.10 °C 
06:45:00-0.90 °C1006.90 hPa92.00 %-2.20 °C 
06:30:00-1.10 °C1007.10 hPa91.00 %-2.50 °C 
06:15:00-1.10 °C1007.20 hPa91.00 %-2.50 °C 
06:00:00-1.10 °C1007.20 hPa91.00 %-2.50 °C 
05:45:00-1.30 °C1007.40 hPa91.00 %-2.70 °C 
05:30:00-1.40 °C1007.60 hPa90.00 %-3.00 °C 
05:15:00-1.10 °C1007.80 hPa90.00 %-2.70 °C 
05:00:00-0.70 °C1007.80 hPa90.00 %-2.30 °C 
04:45:00-0.40 °C1007.90 hPa90.00 %-2.00 °C 
04:30:00-0.20 °C1007.90 hPa90.00 %-1.80 °C 
04:15:00-0.20 °C1008.30 hPa90.00 %-1.80 °C 
04:00:000.10 °C1008.50 hPa90.00 %-1.30 °C 
03:45:000.40 °C1008.50 hPa89.00 %-1.20 °C 
03:30:000.60 °C1008.50 hPa89.00 %-1.00 °C 
03:15:000.70 °C1008.60 hPa89.00 %-0.90 °C 
03:00:000.90 °C1008.50 hPa89.00 %-0.70 °C 
02:45:001.10 °C1008.60 hPa88.00 %-0.70 °C 
02:30:001.30 °C1008.70 hPa88.00 %-0.50 °C 
02:15:001.80 °C1008.80 hPa88.00 %0.00 °C 
02:00:002.30 °C1009.00 hPa88.00 %0.50 °C 
01:45:002.40 °C1009.10 hPa88.00 %0.60 °C 
01:30:002.70 °C1009.00 hPa88.00 %0.90 °C 
01:15:002.90 °C1009.20 hPa88.00 %1.10 °C 
01:00:002.90 °C1009.10 hPa87.00 %1.00 °C 
00:45:002.90 °C1009.00 hPa87.00 %1.00 °C 
00:30:003.10 °C1009.10 hPa87.00 %1.20 °C 
00:15:003.10 °C1009.00 hPa87.00 %1.20 °C 
00:00:003.20 °C1009.00 hPa87.00 %1.30 °C 

Permanenter Link zu dieser Seite: Wetter im Erzgebirge am 28.03.2016
Performance-Info: Die Erstellung der Seite / Statistik(en) / Tabelle(n) erforderte 5 Datenbankserver-Abfrage(n) und dauerte 78 Millisekunden. (Dieser Messwert ist von der Gesamt-Auslastung des Servers abhängig.)
Erzgebirge - Wetter | Erzgebirge - Wetter (Mobilgeräte) | Komplette Klimadatenbank